Rock Rapids, Iowa
Current Conditions -  °F | °C
As of 9:14 PM on Saturday 20 Dec 2014 (Local Time) from KLYV Reporting Station
Haze Haze  
Wind Chill: 22°   Ceiling: 400
Heat Index: 32°   Visibility: 3mi
Dew Point: 30°   Wind: 15mph
Humidity: 93%   Direction: 180°S
Pressure: 29.99"   Gusts: 20mph
Location:  43.43°N, 96.18°W
Report Text: KLYV 210314Z AUTO 18013G17KT 3SM BR OVC004 00/M01 A2999 RMK AO2
Loading
Personal Weather Stations






























Interactive Weather Map New forecast layout! Learn more

10-Day Weather Forecast

Advertisements
Track Severe Weather on mobile